Airfield :
LOGIN :

Register | Disclaimer

   EN    FR    IT 

 










Legend :    VFR   Marginal VFR   IFR   Intensive IFR   Very Intensive IFR
Visi :
Ceiling :
>= 8 km
>= 3000ft
5 to 8 km
1000 to 3000 ft
1500m to 5 km
500 to 1000 ft
800 to 1500m
200 to 500 ft
< 800m
< 200 ft
Symbols :   Thunderstorms  Fog  Heavy snow  Heavy precipitations  Wind > 20 kt
SIGMETs :     Misc.  Thunderstorms  Icing  Turbulence  Mountain Waves  Volcanic Ashes







- Airport Elevation : 1708 ft
- IATA code : SJJ


LQSA - Sarajevo

CURRENT METAR :
  • 201500Z 31007KT 9999 -RA FEW012 OVC025 18/14 Q1018 TEMPO RA

EXPIRED METARs :
  • 201430Z 33007KT 9999 OVC030 18/14 Q1018 NOSIG
  • 201400Z 32009KT 9999 OVC030 18/14 Q1018 NOSIG
  • 201330Z 33009KT 9999 OVC030 19/14 Q1018 NOSIG
  • 201300Z 31009KT 9999 OVC030 19/14 Q1017 NOSIG
  • 201230Z 31009KT 9999 OVC030 20/15 Q1017 NOSIG

TAF COR TAF LQSA
Valid from the 20 at 12:00 until the 21 at 12:00 UTC


201102Z 2012/2112 27008KT 9999 FEW030 SCT060 TX22/2012Z TN13/2104Z
TEMPO 2012/2022 RA BKN010 OVC030
PROB40
TEMPO 2012/2018 33015KT 3000 TSRA SCT010 FEW030CB BKN045
No reported NOTAMs for that airfield.



MET'MAP, your aeronautical weather chart ! - Copyright ORBIFLY December 2007 - Disclaimer

ORBIFLY MET'MAP TEAM :

Programming & Development : Alexandra Zaïnal
Concept & Development : Baudouin d'Aumeries
Co-Development & Prog : Marc-Olivier Méhu
Technical & hardware support : Manuel Goepfert

Contact : metmap@orbifly.com




SOURCES & CREDITS :

   NOAA